首页
METAR-TAF:

METAR-TAF

机场 :

Kendall-Tamiami Executive Airport

迈阿密, 佛罗里达州, 美国

纬度: 25-38-31N, 经度: 080-26-05W, 海拔: 3米

当前天气观测

该预报发布于13分钟前的03:53 UTC
风速4节,风向西
温度 23°C
湿度 100%
气压 1018 hPa
能見度: 16.1公里
少量云层高于2300英尺
多云层高于2900英尺
多云层高于3700英尺

METAR: KTMB 210353Z 26004KT 10SM FEW023 BKN029 BKN037 23/23 A3007 RMK AO2 SLP183 LAST T02330228

时间: 23:06 (04:06 UTC)

预报

该预报发布于1小时和17分钟前的02:49 UTC
预报有效从21日的 03点(UTC)到 21日的 24点(UTC)
风速4节,风向西南
能見度: 10公里
散云层高于2500英尺
多云层高于4500英尺
多云层高于7000英尺
附近有阵雨
从 21日的 0900点(UTC)
风速5节,风向西
能見度: 10公里
散云层高于2000英尺
多云层高于25000英尺
从 21日的 1600点(UTC)
风速12节,风向北转西北
能見度: 10公里
散云层高于1500英尺
多云层高于3000英尺
附近有阵雨
从 21日的 1900点(UTC)
风速13节,风向北转西北,有时为23节阵风
能見度: 10公里
散云层高于1500英尺
多云层高于2500英尺
阴天层高于6000英尺
附近有阵雨

TAF: KTMB 210249Z 2103/2124 22004KT P6SM VCSH SCT025 BKN045 BKN070 FM210900 28005KT P6SM SCT020 BKN250 FM211600 34012KT P6SM VCSH SCT015 BKN030 FM211900 34013G23KT P6SM VCSH SCT015 BKN025 OVC060

超过4000个机场的气象观测和天气预报(METAR&TAF报告)。

可查询的气象台以黄色和红色小点在地图上表示。

将鼠标移到小点上方,可查看气象台名称。

然后点击查看天气观测和预报。

如需切换地图:点击带黑十字的绿色按钮放大地图;点击带横线的绿色按钮缩小地图;或者点击绿色箭头查看邻近地区的地图。


METAR-TAF: